createdAt,value
2018-03-24T00:01:20.253Z,74.49
2018-03-24T00:03:46.981Z,75.00
2018-03-24T00:06:13.724Z,75.14
2018-03-24T00:08:41.317Z,75.44
2018-03-24T00:11:08.090Z,74.99
2018-03-24T00:13:34.788Z,74.96
2018-03-24T00:16:01.530Z,74.53
2018-03-24T00:18:28.849Z,74.78
2018-03-24T00:20:55.642Z,74.65
2018-03-24T00:23:22.376Z,74.51
2018-03-24T00:25:49.135Z,74.68
2018-03-24T00:28:17.251Z,74.84
2018-03-24T00:30:43.957Z,74.77
2018-03-24T00:33:11.418Z,74.64
2018-03-24T00:35:38.164Z,75.01
2018-03-24T00:38:05.587Z,74.97
2018-03-24T00:40:32.346Z,75.33
2018-03-24T00:43:00.396Z,74.24
2018-03-24T00:45:28.051Z,74.70
2018-03-24T00:47:55.830Z,74.74
2018-03-24T00:50:23.147Z,75.29
2018-03-24T00:52:49.900Z,74.96
2018-03-24T00:55:16.673Z,75.05
2018-03-24T00:57:46.072Z,74.89
2018-03-24T01:00:16.345Z,75.58
2018-03-24T01:02:43.194Z,74.95
2018-03-24T01:05:09.912Z,75.32
2018-03-24T01:07:36.689Z,75.56
2018-03-24T01:10:03.579Z,75.46
2018-03-24T01:12:31.316Z,75.12
2018-03-24T01:14:58.848Z,75.08
2018-03-24T01:17:25.598Z,75.76
2018-03-24T01:19:52.377Z,75.76
2018-03-24T01:22:19.154Z,75.48
2018-03-24T01:24:45.959Z,75.60
2018-03-24T01:27:12.896Z,75.80
2018-03-24T01:29:39.628Z,75.86
2018-03-24T01:32:06.340Z,76.37
2018-03-24T01:34:33.097Z,75.86
2018-03-24T01:37:00.536Z,75.67
2018-03-24T01:39:27.286Z,76.26
2018-03-24T01:41:54.096Z,76.14
2018-03-24T01:44:20.839Z,76.27
2018-03-24T01:46:47.597Z,75.66
2018-03-24T01:49:15.058Z,76.63
2018-03-24T01:51:41.804Z,77.08
2018-03-24T01:54:08.560Z,76.83
2018-03-24T01:56:35.258Z,77.65
2018-03-24T01:59:01.973Z,76.91
2018-03-24T02:01:28.744Z,77.64
2018-03-24T02:03:55.452Z,77.75
2018-03-24T02:06:22.823Z,77.48
2018-03-24T02:08:49.615Z,77.21
2018-03-24T02:11:16.374Z,77.11
2018-03-24T02:13:43.910Z,77.78
2018-03-24T02:16:11.542Z,77.61
2018-03-24T02:18:39.035Z,78.48
2018-03-24T02:21:06.548Z,78.27
2018-03-24T02:23:33.902Z,78.30
2018-03-24T02:26:00.628Z,78.06
2018-03-24T02:28:27.331Z,78.21
2018-03-24T02:30:54.102Z,78.81
2018-03-24T02:33:20.942Z,79.10
2018-03-24T02:35:48.425Z,79.28
2018-03-24T02:38:15.874Z,79.34
2018-03-24T02:40:42.586Z,79.52
2018-03-24T02:43:10.667Z,79.75
2018-03-24T02:45:39.595Z,79.21
2018-03-24T02:48:06.369Z,79.58
2018-03-24T02:50:33.105Z,79.26
2018-03-24T02:52:59.867Z,79.40
2018-03-24T02:55:26.528Z,79.41
2018-03-24T02:57:53.247Z,79.48
2018-03-24T03:00:20.010Z,79.36
2018-03-24T03:02:46.620Z,78.79
2018-03-24T03:05:13.365Z,77.80
2018-03-24T03:07:40.104Z,77.68
2018-03-24T03:10:06.917Z,77.47
2018-03-24T03:12:33.661Z,78.20
2018-03-24T03:15:01.149Z,78.92
2018-03-24T03:17:27.895Z,79.40
2018-03-24T03:19:54.698Z,79.50
2018-03-24T03:22:21.479Z,79.59
2018-03-24T03:24:48.265Z,79.94
2018-03-24T03:27:16.960Z,80.65
2018-03-24T03:29:43.648Z,80.24
2018-03-24T03:32:11.329Z,79.91
2018-03-24T03:34:38.757Z,79.63
2018-03-24T03:37:05.480Z,79.92
2018-03-24T03:39:32.308Z,80.23
2018-03-24T03:41:59.015Z,80.58
2018-03-24T03:44:25.766Z,80.45
2018-03-24T03:46:52.466Z,81.08
2018-03-24T03:49:19.361Z,80.99
2018-03-24T03:51:46.082Z,80.12
2018-03-24T03:54:12.885Z,79.42
2018-03-24T03:56:39.559Z,79.90
2018-03-24T03:59:06.274Z,79.44
2018-03-24T04:01:33.028Z,80.02
2018-03-24T04:03:59.663Z,79.32
2018-03-24T04:06:26.395Z,81.20
2018-03-24T04:08:53.061Z,80.46
2018-03-24T04:11:19.816Z,80.65
2018-03-24T04:13:46.476Z,79.55
2018-03-24T04:16:13.879Z,80.52
2018-03-24T04:18:40.558Z,79.91
2018-03-24T04:21:07.281Z,79.96
2018-03-24T04:23:34.516Z,80.20
2018-03-24T04:26:01.955Z,82.28
2018-03-24T04:28:28.603Z,80.82
2018-03-24T04:30:55.323Z,80.64
2018-03-24T04:33:22.022Z,80.16
2018-03-24T04:35:49.433Z,81.27
2018-03-24T04:38:16.179Z,81.68
2018-03-24T04:40:42.876Z,81.76
2018-03-24T04:43:09.550Z,81.98
2018-03-24T04:45:36.307Z,81.16
2018-03-24T04:48:03.090Z,81.44
2018-03-24T04:50:29.725Z,81.39
2018-03-24T04:52:56.431Z,82.01
2018-03-24T04:55:23.116Z,81.68
2018-03-24T04:57:50.818Z,81.01
2018-03-24T05:00:17.524Z,81.97
2018-03-24T05:02:44.274Z,80.91
2018-03-24T05:05:10.984Z,79.95
2018-03-24T05:07:37.676Z,79.28
2018-03-24T05:10:04.313Z,80.69
2018-03-24T05:12:32.561Z,81.30
2018-03-24T05:14:59.272Z,80.57
2018-03-24T05:17:25.903Z,83.44
2018-03-24T05:19:52.554Z,81.57
2018-03-24T05:22:20.254Z,81.37
2018-03-24T05:24:46.944Z,81.10
2018-03-24T05:27:13.644Z,81.40
2018-03-24T05:29:40.345Z,81.95
2018-03-24T05:32:07.074Z,81.05
2018-03-24T05:34:33.756Z,81.19
2018-03-24T05:37:00.539Z,81.55
2018-03-24T05:39:27.234Z,81.03
2018-03-24T05:41:54.704Z,81.46
2018-03-24T05:44:22.134Z,82.95
2018-03-24T05:46:48.833Z,83.40
2018-03-24T05:49:15.556Z,82.30
2018-03-24T05:51:42.219Z,82.20
2018-03-24T05:54:08.959Z,81.82
2018-03-24T05:56:35.691Z,80.86
2018-03-24T05:59:02.465Z,83.10
2018-03-24T06:01:29.172Z,83.67
2018-03-24T06:03:55.904Z,84.12
2018-03-24T06:06:22.646Z,83.44
2018-03-24T06:08:49.278Z,83.40
2018-03-24T06:11:15.981Z,83.63
2018-03-24T06:13:42.677Z,84.34
2018-03-24T06:16:10.361Z,83.53
2018-03-24T06:18:37.814Z,82.60
2018-03-24T06:21:04.470Z,82.27
2018-03-24T06:23:31.210Z,82.27
2018-03-24T06:25:57.939Z,82.61
2018-03-24T06:28:24.702Z,83.32
2018-03-24T06:30:57.959Z,82.83
2018-03-24T06:33:24.703Z,81.84
2018-03-24T06:35:51.381Z,81.33
2018-03-24T06:38:18.027Z,80.66
2018-03-24T06:40:44.642Z,82.36
2018-03-24T06:43:11.508Z,82.07
2018-03-24T06:45:38.152Z,82.79
2018-03-24T06:48:04.769Z,82.29
2018-03-24T06:50:32.148Z,83.13
2018-03-24T06:52:59.536Z,83.66
2018-03-24T06:55:26.207Z,85.10
2018-03-24T06:57:52.970Z,85.92
2018-03-24T07:00:19.663Z,86.08
2018-03-24T07:02:46.318Z,86.00
2018-03-24T07:05:12.984Z,86.18
2018-03-24T07:07:39.680Z,85.83
2018-03-24T07:10:06.393Z,85.83
2018-03-24T07:12:33.048Z,86.56
2018-03-24T07:14:59.816Z,85.72
2018-03-24T07:17:26.550Z,85.33
2018-03-24T07:19:53.895Z,85.32
2018-03-24T07:22:20.586Z,84.74
2018-03-24T07:24:47.859Z,84.93
2018-03-24T07:27:14.518Z,84.53
2018-03-24T07:29:41.239Z,84.44
2018-03-24T07:32:07.846Z,83.74
2018-03-24T07:34:34.493Z,83.24
2018-03-24T07:37:02.157Z,84.39
2018-03-24T07:39:28.923Z,83.63
2018-03-24T07:41:55.614Z,83.61
2018-03-24T07:44:22.412Z,83.31
2018-03-24T07:46:49.197Z,82.94
2018-03-24T07:49:16.716Z,83.55
2018-03-24T07:51:43.468Z,83.94
2018-03-24T07:54:10.256Z,83.75
2018-03-24T07:56:36.970Z,83.02
2018-03-24T07:59:03.790Z,83.08
2018-03-24T08:01:30.580Z,83.08
2018-03-24T08:03:57.285Z,82.47
2018-03-24T08:06:24.113Z,82.34
2018-03-24T08:08:50.818Z,81.53
2018-03-24T08:11:17.678Z,81.66
2018-03-24T08:13:44.480Z,81.14
2018-03-24T08:16:11.244Z,81.18
2018-03-24T08:18:38.093Z,81.36
2018-03-24T08:21:05.806Z,81.70
2018-03-24T08:23:33.037Z,80.91
2018-03-24T08:25:59.817Z,80.81
2018-03-24T08:28:26.680Z,80.05
2018-03-24T08:30:53.540Z,80.32
2018-03-24T08:33:20.330Z,79.61
2018-03-24T08:35:47.165Z,78.85
2018-03-24T08:38:14.683Z,78.92
2018-03-24T08:40:41.525Z,78.68
2018-03-24T08:43:08.376Z,79.52
2018-03-24T08:45:35.173Z,79.42
2018-03-24T08:48:02.884Z,78.72
2018-03-24T08:50:29.752Z,78.65
2018-03-24T08:52:56.560Z,78.24
2018-03-24T08:55:23.384Z,77.22
2018-03-24T08:57:50.265Z,76.69
2018-03-24T09:00:17.163Z,77.46
2018-03-24T09:02:44.705Z,77.00
2018-03-24T09:05:13.343Z,76.95
2018-03-24T09:07:40.163Z,75.70
2018-03-24T09:10:06.997Z,76.28
2018-03-24T09:12:34.597Z,75.87
2018-03-24T09:15:01.421Z,72.93
2018-03-24T09:17:28.213Z,75.23
2018-03-24T09:19:54.998Z,73.34
2018-03-24T09:22:21.841Z,71.67
2018-03-24T09:24:49.675Z,72.86
2018-03-24T09:27:16.508Z,72.77
2018-03-24T09:29:43.306Z,73.79
2018-03-24T09:32:10.059Z,70.92
2018-03-24T09:34:37.661Z,72.78
2018-03-24T09:37:05.455Z,71.03
2018-03-24T09:39:32.526Z,68.65
2018-03-24T09:41:59.534Z,69.19
2018-03-24T09:44:27.204Z,69.45
2018-03-24T09:46:54.171Z,71.88
2018-03-24T09:49:21.119Z,71.81
2018-03-24T09:51:50.361Z,71.05
2018-03-24T09:54:17.462Z,70.06
2018-03-24T09:56:44.298Z,68.17
2018-03-24T09:59:12.218Z,70.39
2018-03-24T10:01:39.068Z,69.30
2018-03-24T10:04:06.081Z,68.00
2018-03-24T10:06:34.018Z,69.38
2018-03-24T10:09:01.107Z,66.58
2018-03-24T10:11:27.966Z,65.88
2018-03-24T10:13:54.742Z,64.51
2018-03-24T10:16:21.480Z,68.02
2018-03-24T10:18:48.339Z,68.08
2018-03-24T10:24:26.429Z,65.76
2018-03-24T10:26:53.349Z,65.76
2018-03-24T10:29:20.205Z,66.67
2018-03-24T10:31:47.963Z,63.38
2018-03-24T10:34:14.889Z,66.11
2018-03-24T10:36:41.788Z,60.09
2018-03-24T10:39:09.341Z,62.83
2018-03-24T10:41:36.214Z,60.24
2018-03-24T10:44:03.073Z,60.66
2018-03-24T10:46:29.867Z,63.97
2018-03-24T10:48:56.904Z,64.20
2018-03-24T10:51:23.917Z,63.70
2018-03-24T10:53:51.683Z,64.25
2018-03-24T10:56:19.734Z,63.27
2018-03-24T10:58:46.625Z,63.35
2018-03-24T11:01:14.117Z,61.90
2018-03-24T11:03:41.558Z,62.37
2018-03-24T11:06:08.385Z,61.70
2018-03-24T11:08:36.194Z,60.65
2018-03-24T11:11:04.283Z,62.89
2018-03-24T11:13:31.944Z,62.46
2018-03-24T11:15:58.813Z,62.25
2018-03-24T11:18:26.700Z,59.92
2018-03-24T11:20:54.157Z,62.44
2018-03-24T11:23:36.574Z,61.66
2018-03-24T11:26:03.523Z,55.58
2018-03-24T11:28:30.310Z,59.57
2018-03-24T11:30:57.299Z,56.39
2018-03-24T11:33:25.152Z,57.90
2018-03-24T11:35:52.350Z,57.76
2018-03-24T11:38:19.347Z,58.11
2018-03-24T11:40:46.687Z,55.31
2018-03-24T11:43:14.136Z,54.46
2018-03-24T11:45:41.138Z,54.16
2018-03-24T11:48:07.949Z,52.93
2018-03-24T11:50:34.819Z,53.55
2018-03-24T11:53:02.311Z,57.45
2018-03-24T11:55:29.380Z,57.56
2018-03-24T11:57:56.205Z,57.18
2018-03-24T12:00:24.313Z,53.35
2018-03-24T12:02:51.257Z,57.49
2018-03-24T12:05:20.323Z,53.16
2018-03-24T12:07:47.208Z,53.70
2018-03-24T12:10:14.590Z,56.39
2018-03-24T12:12:41.407Z,55.49
2018-03-24T12:15:10.513Z,53.12
2018-03-24T12:17:37.652Z,56.03
2018-03-24T12:20:04.550Z,55.87
2018-03-24T12:22:32.399Z,57.13
2018-03-24T12:24:59.201Z,57.82
2018-03-24T12:27:26.857Z,58.00
2018-03-24T12:29:55.059Z,57.24
2018-03-24T12:32:23.368Z,56.84
2018-03-24T12:34:51.393Z,56.57
2018-03-24T12:37:19.035Z,58.08
2018-03-24T12:39:46.116Z,57.43
2018-03-24T12:42:13.103Z,57.46
2018-03-24T12:44:39.988Z,56.59
2018-03-24T12:47:07.000Z,58.41
2018-03-24T12:49:34.074Z,57.23
2018-03-24T12:52:01.564Z,58.93
2018-03-24T12:54:28.532Z,59.04
2018-03-24T12:56:56.680Z,57.30
2018-03-24T12:59:25.146Z,58.46
2018-03-24T13:01:53.351Z,58.03
2018-03-24T13:04:24.415Z,57.03
2018-03-24T13:06:53.268Z,54.31
2018-03-24T13:09:21.239Z,54.26
2018-03-24T13:11:48.650Z,55.71
2018-03-24T13:14:18.559Z,51.01
2018-03-24T13:16:47.098Z,50.26
2018-03-24T13:19:14.206Z,52.08
2018-03-24T13:21:41.764Z,55.43
2018-03-24T13:24:08.575Z,52.78
2018-03-24T13:26:35.621Z,54.58
2018-03-24T13:29:02.583Z,55.24
2018-03-24T13:31:29.899Z,54.57
2018-03-24T13:33:59.101Z,54.50
2018-03-24T13:36:25.946Z,51.07
2018-03-24T13:38:53.929Z,51.92
2018-03-24T13:41:22.107Z,53.98
2018-03-24T13:43:49.015Z,54.22
2018-03-24T13:46:16.180Z,52.96
2018-03-24T13:48:46.769Z,52.29
2018-03-24T13:51:13.644Z,49.94
2018-03-24T13:53:46.705Z,55.79
2018-03-24T13:56:13.703Z,54.89
2018-03-24T13:58:40.770Z,53.64
2018-03-24T14:01:23.772Z,49.24
2018-03-24T14:03:53.167Z,51.49
2018-03-24T14:06:21.840Z,50.83
2018-03-24T14:08:53.735Z,54.60
2018-03-24T14:41:56.925Z,50.38
2018-03-24T15:53:14.484Z,48.80
2018-03-24T19:25:40.431Z,62.62
2018-03-24T21:26:02.811Z,69.48
2018-03-24T21:28:45.411Z,69.54
2018-03-24T21:31:14.083Z,71.08
2018-03-24T21:33:42.723Z,70.21
2018-03-24T21:36:11.161Z,69.63
2018-03-24T21:38:41.659Z,69.46
2018-03-24T21:43:54.349Z,71.14
2018-03-24T21:46:23.816Z,70.84
2018-03-24T21:48:53.142Z,69.74
2018-03-24T21:51:22.759Z,69.74
2018-03-24T21:53:51.369Z,70.39
2018-03-24T21:56:25.020Z,69.09
2018-03-24T21:58:53.663Z,70.96
2018-03-24T22:01:22.245Z,70.53
2018-03-24T22:03:51.385Z,70.47
2018-03-24T22:06:22.732Z,70.11
2018-03-24T22:08:51.256Z,70.81
2018-03-24T22:11:20.655Z,70.51
2018-03-24T22:13:52.235Z,69.76
2018-03-24T22:16:21.418Z,70.58
2018-03-24T22:18:50.813Z,70.99
2018-03-24T22:21:20.997Z,70.89
2018-03-24T22:23:50.349Z,71.41
2018-03-24T22:26:19.422Z,72.12
2018-03-24T22:28:49.657Z,72.09
2018-03-24T22:31:20.294Z,71.39
